Time;durP1;ratioP1;P1;durP2;ratioP2;P2;SDS_P1;SDS_P2;PMS_P1;PMS_P2;Temp;Humidity;BMP_temperature;BMP_pressure;BME280_temperature;BME280_humidity;BME280_pressure;Samples;Min_cycle;Max_cycle;Signal;HPM_P1;HPM_P2
2024/04/21 00:01:16;;;;;;;0.03;0.00;;;1.30;84.90;;;;;;22706463;26;20042;-38
2024/04/21 00:11:18;;;;;;;0.00;0.00;;;1.20;85.10;;;;;;22633249;26;20061;-38
2024/04/21 00:21:20;;;;;;;0.00;0.00;;;1.10;85.90;;;;;;22706856;26;20009;-38
2024/04/21 00:31:22;;;;;;;0.30;0.10;;;0.90;86.00;;;;;;22706033;26;20077;-38
2024/04/21 00:41:24;;;;;;;0.20;0.00;;;0.80;85.90;;;;;;22690090;26;20078;-38
2024/04/21 00:51:26;;;;;;;0.00;0.00;;;0.70;86.60;;;;;;22620993;26;20033;-38
2024/04/21 01:01:29;;;;;;;0.77;0.08;;;0.50;87.80;;;;;;22703512;26;20088;-38
2024/04/21 01:11:31;;;;;;;0.00;0.00;;;0.80;86.90;;;;;;22700614;26;20034;-38
2024/04/21 01:21:36;;;;;;;0.00;0.00;;;0.70;88.30;;;;;;22702362;26;20038;-38
2024/04/21 01:31:38;;;;;;;0.00;0.00;;;0.40;88.50;;;;;;22700628;26;20502;-39
2024/04/21 01:41:40;;;;;;;0.00;0.00;;;0.40;87.80;;;;;;22656481;26;20034;-38
2024/04/21 01:51:43;;;;;;;0.10;0.00;;;0.10;89.60;;;;;;22648354;26;20053;-38
2024/04/21 02:01:45;;;;;;;0.13;0.03;;;-0.20;90.70;;;;;;22549687;26;20375;-38
2024/04/21 02:11:46;;;;;;;0.00;0.00;;;-0.50;91.00;;;;;;22655818;26;20030;-38
2024/04/21 02:21:48;;;;;;;0.55;0.00;;;-0.50;91.10;;;;;;22698730;26;20069;-38
2024/04/21 02:31:50;;;;;;;0.52;0.10;;;-0.50;91.40;;;;;;22713188;26;20080;-38
2024/04/21 02:41:52;;;;;;;0.15;0.00;;;-0.30;90.20;;;;;;22696717;26;20026;-38
2024/04/21 02:51:54;;;;;;;0.05;0.00;;;0.10;89.40;;;;;;22651112;26;19998;-38
2024/04/21 03:01:56;;;;;;;0.00;0.00;;;0.10;89.10;;;;;;22569058;26;20090;-38
2024/04/21 03:11:58;;;;;;;2.45;0.00;;;-0.10;90.20;;;;;;22530397;26;20026;-38
2024/04/21 03:22:00;;;;;;;0.00;0.00;;;-0.10;89.60;;;;;;22563395;26;20105;-37
2024/04/21 03:32:08;;;;;;;0.00;0.00;;;0.20;89.00;;;;;;22709673;26;20096;-38
2024/04/21 03:42:13;;;;;;;0.10;0.00;;;0.10;88.40;;;;;;22598655;26;20096;-38
2024/04/21 03:52:14;;;;;;;0.35;0.00;;;0.20;87.60;;;;;;22597114;26;20088;-39
2024/04/21 04:02:16;;;;;;;0.00;0.00;;;0.40;86.80;;;;;;22707416;26;20030;-38
2024/04/21 04:12:18;;;;;;;0.25;0.00;;;0.50;87.30;;;;;;22706622;26;20022;-38
2024/04/21 04:22:20;;;;;;;0.15;0.00;;;0.50;86.90;;;;;;22704647;26;20095;-38
2024/04/21 04:32:22;;;;;;;0.17;0.00;;;0.50;87.80;;;;;;22632189;26;20070;-38
2024/04/21 04:42:24;;;;;;;0.00;0.00;;;0.50;86.90;;;;;;22671352;26;20025;-38
2024/04/21 04:52:26;;;;;;;0.65;0.00;;;0.70;86.30;;;;;;22651902;26;20030;-38
2024/04/21 05:02:27;;;;;;;0.75;0.00;;;0.90;86.50;;;;;;22642057;26;20026;-38
2024/04/21 05:12:29;;;;;;;0.00;0.00;;;1.10;85.80;;;;;;22593597;26;20034;-37
2024/04/21 05:22:31;;;;;;;0.47;0.00;;;1.30;84.80;;;;;;22594569;26;20086;-38
2024/04/21 05:32:34;;;;;;;0.10;0.00;;;1.50;84.40;;;;;;22620507;26;20093;-38
2024/04/21 05:42:37;;;;;;;0.10;0.00;;;1.80;83.80;;;;;;22667794;26;20033;-38
2024/04/21 05:52:39;;;;;;;0.00;0.00;;;1.90;82.90;;;;;;22610791;26;20039;-38
2024/04/21 06:02:41;;;;;;;0.10;0.00;;;2.10;82.30;;;;;;22556097;26;20105;-38
2024/04/21 06:12:43;;;;;;;0.00;0.00;;;2.30;82.70;;;;;;22562854;26;20031;-38
2024/04/21 06:22:45;;;;;;;0.10;0.05;;;2.80;81.10;;;;;;22561869;26;20488;-38
2024/04/21 06:32:50;;;;;;;0.00;0.00;;;3.20;79.50;;;;;;22560150;26;20373;-39
2024/04/21 06:42:52;;;;;;;0.35;0.17;;;3.80;76.70;;;;;;22614060;26;20031;-38
2024/04/21 06:52:58;;;;;;;0.40;0.35;;;4.30;78.40;;;;;;22528382;26;20380;-39
2024/04/21 07:03:00;;;;;;;0.20;0.10;;;5.00;77.90;;;;;;22555956;26;20030;-39
2024/04/21 07:13:02;;;;;;;0.30;0.00;;;5.40;76.30;;;;;;22559751;26;20035;-39
2024/04/21 07:23:04;;;;;;;0.10;0.10;;;5.50;75.60;;;;;;22556787;26;20476;-39
2024/04/21 07:33:06;;;;;;;0.20;0.00;;;6.30;75.30;;;;;;22554025;26;20031;-46
2024/04/21 07:43:11;;;;;;;0.25;0.00;;;7.20;77.40;;;;;;22584970;26;20527;-47
2024/04/21 07:53:13;;;;;;;0.10;0.00;;;8.60;79.90;;;;;;22558929;26;20078;-41
2024/04/21 08:03:15;;;;;;;0.20;0.10;;;10.10;76.60;;;;;;22550254;26;20026;-40
2024/04/21 08:13:17;;;;;;;0.10;0.00;;;9.90;75.70;;;;;;22558556;26;20092;-41
2024/04/21 08:23:20;;;;;;;0.75;0.10;;;10.50;78.80;;;;;;22556734;26;20083;-40
2024/04/21 08:33:27;;;;;;;1.67;0.00;;;10.60;73.50;;;;;;22550681;26;20035;-40
2024/04/21 08:43:29;;;;;;;0.08;0.08;;;9.60;69.00;;;;;;22555832;26;20031;-41
2024/04/21 08:53:33;;;;;;;0.00;0.00;;;10.20;78.90;;;;;;22533976;26;20090;-40
2024/04/21 09:03:37;;;;;;;0.10;0.10;;;10.40;78.80;;;;;;22550506;26;20093;-39
2024/04/21 09:13:39;;;;;;;0.22;0.17;;;10.10;80.10;;;;;;22527573;26;20050;-39
2024/04/21 09:23:41;;;;;;;0.28;0.10;;;9.50;80.70;;;;;;22511607;26;20797;-39
2024/04/21 09:33:43;;;;;;;0.52;0.20;;;9.00;82.10;;;;;;22547232;26;20039;-39
2024/04/21 09:43:46;;;;;;;2.00;0.20;;;8.90;82.10;;;;;;22560886;26;20031;-40
2024/04/21 09:53:48;;;;;;;1.33;0.20;;;8.70;84.60;;;;;;22555203;26;20042;-40
2024/04/21 10:03:55;;;;;;;0.65;0.20;;;9.70;85.70;;;;;;22562371;26;20365;-40
2024/04/21 10:14:01;;;;;;;0.52;0.20;;;10.50;81.30;;;;;;22547817;26;20234;-39
2024/04/21 10:24:04;;;;;;;0.85;0.20;;;9.90;78.80;;;;;;22554413;26;20565;-40
2024/04/21 10:34:09;;;;;;;0.50;0.30;;;9.00;80.80;;;;;;22558482;26;20030;-39
2024/04/21 10:44:12;;;;;;;0.30;0.20;;;8.40;87.10;;;;;;22560193;26;20361;-39
2024/04/21 10:54:17;;;;;;;0.60;0.30;;;7.90;88.50;;;;;;22533290;26;20096;-39
2024/04/21 11:04:19;;;;;;;1.17;0.30;;;7.60;83.80;;;;;;22554249;26;20100;-39
2024/04/21 11:14:21;;;;;;;0.45;0.38;;;7.70;87.00;;;;;;22555491;26;20442;-39
2024/04/21 11:24:23;;;;;;;1.00;0.40;;;8.20;86.80;;;;;;22607040;26;20466;-39
2024/04/21 11:34:26;;;;;;;1.00;0.32;;;7.90;80.50;;;;;;22555724;26;20096;-39
2024/04/21 11:44:28;;;;;;;1.15;0.60;;;7.20;85.90;;;;;;22555545;26;20030;-39
2024/04/21 11:54:30;;;;;;;1.98;0.75;;;6.90;86.80;;;;;;22552780;26;20042;-39
2024/04/21 12:04:32;;;;;;;1.17;0.60;;;6.10;90.10;;;;;;22553988;26;20026;-39
2024/04/21 12:14:33;;;;;;;1.17;0.73;;;5.50;90.10;;;;;;22560181;26;20027;-38
2024/04/21 12:24:38;;;;;;;1.10;0.60;;;5.90;91.20;;;;;;22557029;26;20034;-38
2024/04/21 12:34:40;;;;;;;1.35;0.70;;;6.20;91.30;;;;;;22549250;26;20035;-39
2024/04/21 12:44:42;;;;;;;1.42;0.60;;;6.50;92.20;;;;;;22550917;26;20427;-41
2024/04/21 12:54:46;;;;;;;1.42;0.90;;;8.10;95.30;;;;;;22598246;26;20029;-41
2024/04/21 13:04:48;;;;;;;1.48;0.77;;;10.50;90.70;;;;;;22546280;26;20038;-40
2024/04/21 13:14:54;;;;;;;1.80;0.98;;;10.80;87.60;;;;;;22525170;26;20030;-40
2024/04/21 13:24:56;;;;;;;1.60;0.60;;;9.90;87.60;;;;;;22545070;26;20035;-40
2024/04/21 13:34:58;;;;;;;1.27;0.50;;;9.60;81.80;;;;;;22544867;26;20034;-39
2024/04/21 13:45:03;;;;;;;1.83;0.80;;;9.10;87.60;;;;;;22547367;26;20117;-39
2024/04/21 13:55:08;;;;;;;1.05;0.80;;;8.90;89.50;;;;;;22540570;26;20027;-39
2024/04/21 14:05:10;;;;;;;0.90;0.65;;;9.90;88.40;;;;;;22546032;26;20034;-40
2024/04/21 14:15:12;;;;;;;1.25;0.32;;;9.80;85.50;;;;;;22541653;26;20160;-39
2024/04/21 14:25:17;;;;;;;2.00;0.40;;;9.50;84.60;;;;;;22524717;26;20030;-40
2024/04/21 14:35:19;;;;;;;1.20;0.70;;;9.70;81.20;;;;;;22557181;26;20479;-39
2024/04/21 14:45:21;;;;;;;2.38;0.82;;;9.30;83.30;;;;;;22555794;26;20023;-39
2024/04/21 14:55:25;;;;;;;0.82;0.60;;;8.60;83.70;;;;;;22541013;26;20027;-39
2024/04/21 15:05:27;;;;;;;1.30;0.82;;;8.30;86.40;;;;;;22556708;26;20027;-39
2024/04/21 15:15:29;;;;;;;1.63;0.90;;;8.30;88.10;;;;;;22553484;26;20130;-39
2024/04/21 15:25:33;;;;;;;2.03;0.95;;;8.30;87.70;;;;;;22632277;26;20054;-39
2024/04/21 15:35:35;;;;;;;1.10;0.70;;;7.40;88.80;;;;;;22558189;26;20034;-39
2024/04/21 15:45:37;;;;;;;1.35;0.80;;;6.90;91.60;;;;;;22551833;26;20035;-39
2024/04/21 15:55:39;;;;;;;0.95;0.60;;;7.20;92.30;;;;;;22552558;26;20097;-39
2024/04/21 16:05:43;;;;;;;1.63;1.00;;;7.60;90.10;;;;;;22560274;26;20022;-39
2024/04/21 16:15:45;;;;;;;2.03;1.02;;;7.60;92.70;;;;;;22551900;26;20109;-39
2024/04/21 16:25:47;;;;;;;1.80;0.77;;;7.60;92.20;;;;;;22556349;26;20435;-39
2024/04/21 16:35:49;;;;;;;1.13;0.82;;;7.00;92.20;;;;;;22548855;26;20454;-38
2024/04/21 16:45:55;;;;;;;2.65;1.00;;;6.30;92.30;;;;;;22551193;26;20481;-39
2024/04/21 16:55:57;;;;;;;1.58;0.90;;;5.40;94.70;;;;;;22648772;26;20096;-38
2024/04/21 17:06:01;;;;;;;1.58;0.88;;;5.20;94.10;;;;;;22671800;26;20484;-39
2024/04/21 17:16:08;;;;;;;1.65;0.90;;;4.90;95.90;;;;;;22664655;26;20433;-45
2024/04/21 17:26:11;;;;;;;1.95;1.00;;;4.60;95.90;;;;;;22574183;26;20031;-46
2024/04/21 17:36:12;;;;;;;7.15;0.85;;;4.20;98.00;;;;;;22542585;26;20087;-45
2024/04/21 17:46:14;;;;;;;0.82;0.50;;;3.60;97.60;;;;;;22602156;26;20121;-46
2024/04/21 17:56:16;;;;;;;1.02;0.50;;;3.50;96.90;;;;;;22575984;26;20034;-47
2024/04/21 18:06:18;;;;;;;0.80;0.47;;;3.10;97.90;;;;;;22714165;26;20033;-45
2024/04/21 18:16:21;;;;;;;1.67;0.70;;;2.70;98.60;;;;;;22712309;26;20069;-45
2024/04/21 18:26:23;;;;;;;2.58;0.60;;;2.60;99.60;;;;;;22665318;26;20347;-45
2024/04/21 18:36:25;;;;;;;0.93;0.40;;;2.40;99.90;;;;;;22713371;26;20030;-45
2024/04/21 18:46:29;;;;;;;1.58;0.50;;;2.20;99.90;;;;;;22709528;26;20475;-45
2024/04/21 18:56:31;;;;;;;2.28;0.30;;;2.30;99.90;;;;;;22664480;26;20494;-47
2024/04/21 19:06:33;;;;;;;0.60;0.30;;;2.30;99.90;;;;;;22566120;26;20116;-45
2024/04/21 19:16:39;;;;;;;0.95;0.50;;;2.30;99.90;;;;;;22711092;26;20047;-43
2024/04/21 19:26:41;;;;;;;0.65;0.40;;;2.40;99.90;;;;;;22709771;26;20554;-43
2024/04/21 19:36:43;;;;;;;0.63;0.40;;;2.40;99.90;;;;;;22631603;26;20023;-38
2024/04/21 19:46:45;;;;;;;0.68;0.30;;;2.20;99.90;;;;;;22701743;26;20027;-38
2024/04/21 19:56:47;;;;;;;0.30;0.30;;;2.00;99.90;;;;;;22665553;26;20026;-37
2024/04/21 20:06:49;;;;;;;0.45;0.20;;;2.10;99.90;;;;;;22707524;26;20069;-44
2024/04/21 20:27:11;;;;;;;1.33;0.25;;;2.00;99.90;;;;;;22670157;26;20022;-47
2024/04/21 20:37:19;;;;;;;0.75;0.43;;;1.80;99.90;;;;;;22673607;26;20026;-45
2024/04/21 20:47:21;;;;;;;0.55;0.40;;;1.80;99.90;;;;;;22687010;26;20093;-45
2024/04/21 20:57:23;;;;;;;0.40;0.20;;;1.60;99.90;;;;;;22669077;26;20026;-46
2024/04/21 21:07:26;;;;;;;0.70;0.40;;;1.50;99.90;;;;;;22595905;26;20383;-46
2024/04/21 21:17:28;;;;;;;0.70;0.50;;;1.70;99.90;;;;;;22703119;26;20484;-46
2024/04/21 21:27:30;;;;;;;0.93;0.50;;;1.40;99.90;;;;;;22701784;26;20092;-44
2024/04/21 21:37:32;;;;;;;1.25;0.60;;;0.80;99.90;;;;;;22655805;26;20010;-47
2024/04/21 21:47:34;;;;;;;0.75;0.50;;;0.60;99.90;;;;;;22649823;26;20042;-37
2024/04/21 21:57:37;;;;;;;0.90;0.40;;;0.60;99.90;;;;;;22670155;26;20034;-37
2024/04/21 22:07:39;;;;;;;0.90;0.70;;;0.60;99.90;;;;;;22698169;26;20077;-37
2024/04/21 22:17:41;;;;;;;1.63;0.90;;;0.50;99.90;;;;;;22644678;26;20035;-36
2024/04/21 22:27:42;;;;;;;1.23;0.95;;;0.60;99.90;;;;;;22669653;26;20057;-38
2024/04/21 22:37:44;;;;;;;1.05;0.80;;;0.80;99.90;;;;;;22665970;26;20034;-37
2024/04/21 22:47:46;;;;;;;1.10;0.73;;;0.80;99.90;;;;;;22689106;26;20027;-37
2024/04/21 22:57:48;;;;;;;1.80;1.00;;;0.90;99.90;;;;;;22676176;26;20495;-38
2024/04/21 23:07:49;;;;;;;2.03;1.05;;;0.60;99.90;;;;;;22608533;26;20030;-37
2024/04/21 23:17:51;;;;;;;1.60;1.17;;;0.40;99.90;;;;;;22679028;26;20041;-42
2024/04/21 23:27:56;;;;;;;1.70;1.33;;;0.40;99.90;;;;;;22709760;26;20859;-38
2024/04/21 23:37:58;;;;;;;1.58;1.20;;;0.40;99.90;;;;;;22351972;26;20004;-37
2024/04/21 23:48:01;;;;;;;2.22;1.80;;;0.50;99.90;;;;;;22371298;26;20480;-37
2024/04/21 23:58:03;;;;;;;2.33;1.52;;;0.40;99.90;;;;;;22372782;26;20003;-38
